Time;durP1;ratioP1;P1;durP2;ratioP2;P2;SDS_P1;SDS_P2;PMS_P1;PMS_P2;Temp;Humidity;BMP_temperature;BMP_pressure;BME280_temperature;BME280_humidity;BME280_pressure;Samples;Min_cycle;Max_cycle;Signal;HPM_P1;HPM_P2
2021/11/14 00:01:38;;;;;;;0.57;0.40;;;;;;;;;;5034522;28;20029;-71
2021/11/14 00:04:30;;;;;;;1.08;0.30;;;;;;;;;;5035159;28;20013;-73
2021/11/14 00:06:55;;;;;;;1.73;0.40;;;;;;;;;;4953639;29;20038;-72
2021/11/14 00:09:21;;;;;;;0.98;0.17;;;;;;;;;;4971683;28;20051;-73
2021/11/14 00:11:53;;;;;;;0.10;0.00;;;;;;;;;;4972769;28;20434;-73
2021/11/14 00:14:19;;;;;;;1.00;0.30;;;;;;;;;;4973067;28;20497;-71
2021/11/14 00:16:47;;;;;;;0.65;0.28;;;;;;;;;;4956639;28;20029;-74
2021/11/14 00:19:23;;;;;;;2.10;0.20;;;;;;;;;;4973016;28;20023;-72
2021/11/14 00:21:50;;;;;;;2.15;0.30;;;;;;;;;;4972914;28;20543;-73
2021/11/14 00:24:36;;;;;;;0.88;0.10;;;;;;;;;;4972846;28;20046;-73
2021/11/14 00:27:02;;;;;;;1.10;0.20;;;;;;;;;;4972911;28;20029;-72
2021/11/14 00:29:38;;;;;;;1.52;0.32;;;;;;;;;;4972897;28;20038;-73
2021/11/14 00:32:06;;;;;;;2.15;0.20;;;;;;;;;;4956476;28;20058;-71
2021/11/14 00:34:34;;;;;;;0.60;0.10;;;;;;;;;;4972836;28;20062;-73
2021/11/14 00:37:08;;;;;;;0.98;0.10;;;;;;;;;;4972863;28;20029;-73
2021/11/14 00:39:51;;;;;;;0.35;0.28;;;;;;;;;;4975761;28;20376;-72
2021/11/14 00:42:17;;;;;;;1.98;0.75;;;;;;;;;;4976445;28;20046;-72
2021/11/14 00:44:58;;;;;;;0.45;0.32;;;;;;;;;;5032238;28;20370;-71
2021/11/14 00:47:25;;;;;;;1.92;0.43;;;;;;;;;;5037247;28;20022;-73
2021/11/14 00:49:53;;;;;;;1.63;0.20;;;;;;;;;;5037114;28;20025;-71
2021/11/14 00:52:35;;;;;;;2.17;0.20;;;;;;;;;;5036981;28;20021;-73
2021/11/14 00:55:02;;;;;;;0.95;0.15;;;;;;;;;;5039876;28;20028;-73
2021/11/14 00:57:48;;;;;;;0.50;0.10;;;;;;;;;;5037008;28;20024;-72
2021/11/14 01:00:15;;;;;;;0.35;0.10;;;;;;;;;;5037041;28;20018;-73
2021/11/14 01:02:49;;;;;;;1.13;0.10;;;;;;;;;;5036730;28;20026;-70
2021/11/14 01:05:17;;;;;;;0.73;0.30;;;;;;;;;;5036959;28;20021;-73
2021/11/14 01:07:43;;;;;;;0.65;0.13;;;;;;;;;;5034529;28;20061;-72
2021/11/14 01:10:10;;;;;;;1.20;0.22;;;;;;;;;;5057034;28;20060;-71
2021/11/14 01:12:45;;;;;;;1.52;0.50;;;;;;;;;;5056439;28;20024;-73
2021/11/14 01:15:19;;;;;;;1.50;0.32;;;;;;;;;;5056559;28;20092;-71
2021/11/14 01:17:44;;;;;;;0.35;0.28;;;;;;;;;;5056546;28;20491;-73
2021/11/14 01:20:11;;;;;;;0.57;0.10;;;;;;;;;;5056431;28;20021;-72
2021/11/14 01:22:40;;;;;;;0.45;0.22;;;;;;;;;;5038532;28;20738;-72
2021/11/14 01:25:09;;;;;;;0.82;0.20;;;;;;;;;;5056398;28;20087;-73
2021/11/14 01:27:36;;;;;;;0.60;0.20;;;;;;;;;;5056420;28;20021;-71
2021/11/14 01:33:04;;;;;;;1.98;0.20;;;;;;;;;;5056082;28;20028;-72
2021/11/14 01:35:31;;;;;;;0.70;0.30;;;;;;;;;;5056226;28;20025;-73
2021/11/14 01:37:58;;;;;;;0.50;0.17;;;;;;;;;;5056049;28;20075;-73
2021/11/14 01:40:33;;;;;;;0.50;0.20;;;;;;;;;;5056423;28;20025;-70
2021/11/14 01:43:27;;;;;;;1.35;0.20;;;;;;;;;;5055977;28;20021;-73
2021/11/14 01:46:11;;;;;;;1.27;0.17;;;;;;;;;;4975211;28;20117;-72
2021/11/14 01:48:39;;;;;;;0.35;0.20;;;;;;;;;;4975168;28;20035;-73
2021/11/14 01:51:13;;;;;;;1.48;0.35;;;;;;;;;;4973874;28;20026;-71
2021/11/14 01:53:48;;;;;;;0.25;0.20;;;;;;;;;;4977021;28;20022;-73
2021/11/14 01:56:15;;;;;;;0.40;0.00;;;;;;;;;;4975195;28;20576;-72
2021/11/14 01:58:42;;;;;;;0.63;0.20;;;;;;;;;;4975130;28;20093;-72
2021/11/14 02:01:10;;;;;;;2.58;0.20;;;;;;;;;;4998354;22;20354;-73
2021/11/14 02:03:37;;;;;;;1.23;0.28;;;;;;;;;;5054311;28;20792;-72
2021/11/14 02:06:04;;;;;;;1.63;0.28;;;;;;;;;;5055532;28;20017;-73
2021/11/14 02:08:31;;;;;;;0.60;0.28;;;;;;;;;;5055587;28;20017;-73
2021/11/14 02:10:59;;;;;;;1.20;0.57;;;;;;;;;;5055372;28;20033;-71
2021/11/14 02:13:26;;;;;;;0.77;0.30;;;;;;;;;;5055432;28;20476;-73
2021/11/14 02:15:54;;;;;;;0.65;0.10;;;;;;;;;;5055340;28;20096;-72
2021/11/14 02:18:38;;;;;;;1.13;0.20;;;;;;;;;;5054098;28;20024;-71
2021/11/14 02:21:05;;;;;;;0.28;0.25;;;;;;;;;;5054267;28;20021;-73
2021/11/14 02:23:42;;;;;;;1.08;0.10;;;;;;;;;;5058709;28;20025;-70
2021/11/14 02:26:15;;;;;;;0.65;0.10;;;;;;;;;;5053926;28;20030;-73
2021/11/14 02:28:42;;;;;;;0.63;0.17;;;;;;;;;;5053948;28;20031;-72
2021/11/14 02:31:16;;;;;;;0.40;0.20;;;;;;;;;;5054949;28;20095;-73
2021/11/14 02:33:51;;;;;;;0.60;0.20;;;;;;;;;;5055139;28;20044;-73
2021/11/14 02:36:24;;;;;;;1.52;0.28;;;;;;;;;;5055217;28;20035;-72
2021/11/14 02:39:08;;;;;;;1.70;0.17;;;;;;;;;;5053735;28;20025;-73
2021/11/14 02:41:34;;;;;;;0.30;0.13;;;;;;;;;;5054967;28;20025;-71
2021/11/14 02:44:17;;;;;;;0.80;0.28;;;;;;;;;;5053629;28;20031;-73
2021/11/14 02:46:43;;;;;;;1.40;0.28;;;;;;;;;;5055099;28;20025;-71
2021/11/14 02:49:08;;;;;;;1.50;0.70;;;;;;;;;;5054688;28;20033;-73
2021/11/14 02:51:44;;;;;;;1.05;0.10;;;;;;;;;;5054732;28;20075;-73
2021/11/14 02:54:10;;;;;;;0.38;0.10;;;;;;;;;;5054677;28;20017;-71
2021/11/14 02:56:45;;;;;;;1.17;0.10;;;;;;;;;;5054642;28;20070;-73
2021/11/14 02:59:11;;;;;;;1.48;0.52;;;;;;;;;;5054605;28;20021;-72
2021/11/14 03:01:48;;;;;;;1.08;0.00;;;;;;;;;;5052826;28;20396;-73
2021/11/14 03:04:19;;;;;;;2.45;0.40;;;;;;;;;;5054454;28;20054;-72
2021/11/14 03:06:56;;;;;;;0.28;0.10;;;;;;;;;;5054471;28;20419;-72
2021/11/14 03:09:22;;;;;;;1.40;0.10;;;;;;;;;;5053153;28;20025;-73
2021/11/14 03:11:49;;;;;;;2.40;0.32;;;;;;;;;;5053043;28;20017;-71
2021/11/14 03:14:16;;;;;;;1.27;0.30;;;;;;;;;;5054327;28;20372;-73
2021/11/14 03:16:42;;;;;;;1.23;0.10;;;;;;;;;;5054427;28;20490;-73
2021/11/14 03:19:16;;;;;;;0.28;0.10;;;;;;;;;;5054249;28;20048;-71
2021/11/14 03:21:44;;;;;;;0.57;0.10;;;;;;;;;;5055779;28;20074;-74
2021/11/14 03:24:23;;;;;;;0.13;0.10;;;;;;;;;;5053209;28;20385;-72
2021/11/14 03:26:50;;;;;;;0.30;0.03;;;;;;;;;;5054206;28;20032;-72
2021/11/14 03:29:15;;;;;;;0.98;0.25;;;;;;;;;;5052880;28;20070;-72
2021/11/14 03:31:43;;;;;;;1.63;0.27;;;;;;;;;;5052763;28;20025;-71
2021/11/14 03:34:10;;;;;;;1.13;0.15;;;;;;;;;;5054028;28;20261;-73
2021/11/14 03:36:45;;;;;;;1.23;0.13;;;;;;;;;;5054067;28;20065;-72
2021/11/14 03:39:12;;;;;;;;;;;;;;;;;;5054374;28;20563;-72
2021/11/14 03:41:40;;;;;;;0.93;0.17;;;;;;;;;;5054032;28;19999;-73
2021/11/14 03:44:14;;;;;;;0.13;0.00;;;;;;;;;;5053968;28;20024;-72
2021/11/14 03:46:48;;;;;;;;;;;;;;;;;;5054360;28;20017;-73
2021/11/14 03:49:14;;;;;;;1.08;0.17;;;;;;;;;;5052667;28;19912;-72
2021/11/14 03:51:41;;;;;;;1.48;0.10;;;;;;;;;;5053849;28;20116;-72
2021/11/14 03:54:10;;;;;;;1.17;0.20;;;;;;;;;;5053634;28;20106;-73
2021/11/14 03:56:35;;;;;;;2.28;0.20;;;;;;;;;;5053792;28;20151;-72
2021/11/14 03:59:11;;;;;;;0.47;0.20;;;;;;;;;;5053747;28;20091;-72
2021/11/14 04:01:39;;;;;;;2.33;0.08;;;;;;;;;;5043954;28;20259;-73
2021/11/14 04:04:05;;;;;;;0.73;0.10;;;;;;;;;;5032586;28;20083;-71
2021/11/14 04:06:36;;;;;;;0.98;0.10;;;;;;;;;;5033751;28;20407;-73
2021/11/14 04:09:11;;;;;;;1.58;0.47;;;;;;;;;;5032790;28;20396;-73
2021/11/14 04:11:38;;;;;;;1.17;0.13;;;;;;;;;;5033746;28;20079;-72
2021/11/14 04:14:34;;;;;;;0.65;0.20;;;;;;;;;;5036010;28;20021;-73
2021/11/14 04:17:10;;;;;;;0.73;0.10;;;;;;;;;;5037624;28;20040;-72
2021/11/14 04:19:37;;;;;;;0.68;0.10;;;;;;;;;;5037720;28;20033;-73
2021/11/14 04:22:03;;;;;;;0.20;0.10;;;;;;;;;;5038224;28;20465;-71
2021/11/14 04:24:50;;;;;;;0.77;0.17;;;;;;;;;;5036364;28;20025;-73
2021/11/14 04:27:28;;;;;;;0.95;0.20;;;;;;;;;;5036376;28;20017;-72
2021/11/14 04:29:55;;;;;;;2.15;0.20;;;;;;;;;;5037473;28;20025;-72
2021/11/14 04:32:31;;;;;;;0.47;0.10;;;;;;;;;;5037618;28;20389;-72
2021/11/14 04:34:58;;;;;;;2.08;0.32;;;;;;;;;;5037192;28;20112;-71
2021/11/14 04:37:34;;;;;;;0.05;0.00;;;;;;;;;;5036194;28;20024;-73
2021/11/14 04:40:06;;;;;;;0.30;0.13;;;;;;;;;;5035949;28;20377;-72
2021/11/14 04:42:31;;;;;;;1.45;0.20;;;;;;;;;;5036211;28;20036;-72
2021/11/14 04:45:07;;;;;;;0.65;0.20;;;;;;;;;;5037185;28;20112;-73
2021/11/14 04:47:35;;;;;;;0.10;0.10;;;;;;;;;;5037133;28;20029;-70
2021/11/14 04:50:08;;;;;;;0.30;0.00;;;;;;;;;;5035811;28;20112;-73
2021/11/14 04:52:35;;;;;;;0.10;0.00;;;;;;;;;;5037276;28;20013;-72
2021/11/14 04:55:04;;;;;;;1.08;0.50;;;;;;;;;;5037030;28;20021;-72
2021/11/14 04:57:51;;;;;;;0.55;0.28;;;;;;;;;;5037029;28;20072;-73
2021/11/14 05:00:26;;;;;;;0.45;0.20;;;;;;;;;;5037063;28;20021;-71
2021/11/14 05:02:51;;;;;;;0.80;0.10;;;;;;;;;;5044150;28;20057;-73
2021/11/14 05:05:17;;;;;;;0.82;0.13;;;;;;;;;;5056659;28;20388;-72
2021/11/14 05:07:48;;;;;;;1.77;0.17;;;;;;;;;;5056769;28;20021;-71
2021/11/14 05:10:13;;;;;;;1.27;0.10;;;;;;;;;;5056848;28;20299;-73
2021/11/14 05:12:39;;;;;;;0.30;0.10;;;;;;;;;;5056603;28;20025;-71
2021/11/14 05:15:06;;;;;;;1.20;0.40;;;;;;;;;;5056480;28;20067;-72
2021/11/14 05:17:48;;;;;;;2.35;0.20;;;;;;;;;;5056573;28;20021;-72
2021/11/14 05:20:16;;;;;;;0.20;0.00;;;;;;;;;;5056538;28;20059;-71
2021/11/14 05:22:42;;;;;;;0.77;0.15;;;;;;;;;;5056528;28;20479;-73
2021/11/14 05:25:15;;;;;;;0.45;0.28;;;;;;;;;;5055093;28;20021;-71
2021/11/14 05:27:41;;;;;;;1.63;0.50;;;;;;;;;;5056390;28;20056;-71
2021/11/14 05:30:15;;;;;;;1.75;0.47;;;;;;;;;;5055196;28;20092;-72
2021/11/14 05:32:47;;;;;;;2.03;0.32;;;;;;;;;;5054830;28;20401;-70
2021/11/14 05:35:20;;;;;;;1.50;0.10;;;;;;;;;;5055075;28;20012;-72
2021/11/14 05:37:55;;;;;;;0.57;0.10;;;;;;;;;;5056138;28;20017;-71
2021/11/14 05:40:21;;;;;;;1.90;0.32;;;;;;;;;;5055980;28;20060;-72
2021/11/14 05:42:52;;;;;;;0.60;0.13;;;;;;;;;;5056134;28;20067;-73
2021/11/14 05:45:19;;;;;;;2.28;0.35;;;;;;;;;;5056577;28;20013;-70
2021/11/14 05:47:46;;;;;;;1.10;0.10;;;;;;;;;;5055932;28;20028;-73
2021/11/14 05:50:12;;;;;;;1.98;0.57;;;;;;;;;;5055890;28;20495;-71
2021/11/14 05:52:40;;;;;;;2.25;0.20;;;;;;;;;;5056335;28;20064;-71
2021/11/14 05:55:25;;;;;;;1.15;0.28;;;;;;;;;;5055886;28;20067;-72
2021/11/14 05:57:57;;;;;;;2.47;0.20;;;;;;;;;;5055653;28;20013;-71
2021/11/14 06:01:15;;;;;;;0.40;0.10;;;;;;;;;;5055802;28;20428;-73
2021/11/14 06:03:52;;;;;;;1.13;0.17;;;;;;;;;;4997318;28;20081;-72
2021/11/14 06:06:18;;;;;;;1.60;0.17;;;;;;;;;;4997495;28;20109;-71
2021/11/14 06:08:43;;;;;;;3.25;0.20;;;;;;;;;;4997325;28;20153;-71
2021/11/14 06:11:26;;;;;;;2.63;0.47;;;;;;;;;;5013826;28;20026;-72
2021/11/14 06:13:59;;;;;;;2.95;0.30;;;;;;;;;;5013740;28;20413;-71
2021/11/14 06:16:26;;;;;;;1.08;0.47;;;;;;;;;;5013700;28;20018;-72
2021/11/14 06:19:02;;;;;;;0.73;0.10;;;;;;;;;;5013534;28;20032;-71
2021/11/14 06:21:28;;;;;;;3.22;0.30;;;;;;;;;;5013396;28;20113;-73
2021/11/14 06:23:53;;;;;;;0.63;0.20;;;;;;;;;;5013616;28;20022;-72
2021/11/14 06:26:19;;;;;;;2.60;0.52;;;;;;;;;;5013563;28;20033;-69
2021/11/14 06:28:44;;;;;;;1.00;0.10;;;;;;;;;;5013373;28;20493;-72
2021/11/14 06:31:11;;;;;;;0.40;0.17;;;;;;;;;;5013558;28;20034;-72
2021/11/14 06:33:46;;;;;;;1.25;0.10;;;;;;;;;;5024769;28;20025;-70
2021/11/14 06:36:12;;;;;;;1.75;0.10;;;;;;;;;;5053257;28;20031;-72
2021/11/14 06:38:39;;;;;;;1.23;0.47;;;;;;;;;;5055105;28;20017;-71
2021/11/14 06:41:10;;;;;;;1.75;0.10;;;;;;;;;;5053654;28;20248;-72
2021/11/14 06:43:46;;;;;;;0.57;0.20;;;;;;;;;;5054957;28;20790;-72
2021/11/14 06:46:15;;;;;;;1.60;0.35;;;;;;;;;;5055063;28;20104;-70
2021/11/14 06:48:40;;;;;;;1.55;0.15;;;;;;;;;;5053576;28;20025;-73
2021/11/14 06:51:07;;;;;;;1.10;0.22;;;;;;;;;;5053308;28;20033;-72
2021/11/14 06:53:37;;;;;;;0.60;0.10;;;;;;;;;;5054713;28;20025;-71
2021/11/14 06:56:30;;;;;;;1.05;0.17;;;;;;;;;;5055045;28;20017;-73
2021/11/14 06:58:56;;;;;;;0.98;0.15;;;;;;;;;;5012647;28;20034;-72
2021/11/14 07:01:30;;;;;;;0.75;0.30;;;;;;;;;;5013193;28;20068;-73
2021/11/14 07:03:55;;;;;;;2.22;0.60;;;;;;;;;;5012718;28;20062;-71
2021/11/14 07:06:29;;;;;;;1.58;0.50;;;;;;;;;;5012923;28;20029;-72
2021/11/14 07:09:07;;;;;;;1.52;0.20;;;;;;;;;;4996290;28;20445;-73
2021/11/14 07:11:42;;;;;;;0.43;0.17;;;;;;;;;;5012527;28;20168;-71
2021/11/14 07:14:09;;;;;;;2.90;0.32;;;;;;;;;;5012608;28;20024;-72
2021/11/14 07:16:35;;;;;;;1.52;0.47;;;;;;;;;;5012752;28;20037;-71
2021/11/14 07:19:02;;;;;;;0.80;0.30;;;;;;;;;;5012667;28;20030;-73
2021/11/14 07:21:29;;;;;;;2.17;0.55;;;;;;;;;;5012549;28;20028;-72
2021/11/14 07:23:54;;;;;;;0.77;0.00;;;;;;;;;;5012402;28;20081;-71
2021/11/14 07:26:32;;;;;;;0.93;0.25;;;;;;;;;;5013056;28;20029;-73
2021/11/14 07:29:00;;;;;;;1.25;0.17;;;;;;;;;;5012419;28;20030;-71
2021/11/14 07:31:26;;;;;;;1.95;0.30;;;;;;;;;;5012377;28;20109;-72
2021/11/14 07:33:54;;;;;;;0.63;0.40;;;;;;;;;;5012410;28;20049;-73
2021/11/14 07:36:21;;;;;;;0.57;0.10;;;;;;;;;;5043982;28;20029;-71
2021/11/14 07:38:47;;;;;;;0.52;0.10;;;;;;;;;;5053999;28;20025;-73
2021/11/14 07:41:20;;;;;;;1.33;0.50;;;;;;;;;;5052738;28;20027;-72
2021/11/14 07:43:46;;;;;;;1.20;0.25;;;;;;;;;;5053999;28;20107;-72
2021/11/14 07:46:30;;;;;;;1.13;0.20;;;;;;;;;;5054054;28;20053;-73
2021/11/14 07:48:57;;;;;;;0.90;0.20;;;;;;;;;;5052947;28;20032;-71
2021/11/14 07:51:34;;;;;;;1.20;0.13;;;;;;;;;;5054001;28;20032;-74
2021/11/14 07:54:01;;;;;;;0.73;0.15;;;;;;;;;;5053813;28;20016;-72
2021/11/14 07:56:43;;;;;;;1.23;0.10;;;;;;;;;;5052601;28;20013;-72
2021/11/14 07:59:10;;;;;;;0.57;0.17;;;;;;;;;;5054555;28;20522;-72
2021/11/14 08:01:37;;;;;;;0.20;0.00;;;;;;;;;;5053773;28;20376;-72
2021/11/14 08:04:02;;;;;;;0.10;0.10;;;;;;;;;;5052342;28;20094;-73
2021/11/14 08:06:27;;;;;;;1.42;0.30;;;;;;;;;;5054082;28;20372;-72
2021/11/14 08:09:08;;;;;;;1.55;0.20;;;;;;;;;;5052520;28;20468;-73
2021/11/14 08:11:35;;;;;;;1.17;0.08;;;;;;;;;;5054083;28;20021;-73
2021/11/14 08:14:02;;;;;;;2.08;0.40;;;;;;;;;;5053660;28;20483;-72
2021/11/14 08:17:01;;;;;;;1.52;0.22;;;;;;;;;;5053692;28;20016;-73
2021/11/14 08:19:26;;;;;;;0.35;0.30;;;;;;;;;;5052449;28;20018;-72
2021/11/14 08:21:53;;;;;;;1.10;0.40;;;;;;;;;;5053540;28;20039;-73
2021/11/14 08:24:19;;;;;;;1.52;0.15;;;;;;;;;;5052274;28;20040;-73
2021/11/14 08:26:44;;;;;;;0.85;0.20;;;;;;;;;;5052718;28;20112;-72
2021/11/14 08:29:25;;;;;;;0.88;0.35;;;;;;;;;;5053721;28;20099;-73
2021/11/14 08:32:10;;;;;;;1.13;0.25;;;;;;;;;;5053408;28;20027;-72
2021/11/14 08:34:36;;;;;;;1.65;0.22;;;;;;;;;;5053507;28;20100;-73
2021/11/14 08:37:01;;;;;;;1.17;0.25;;;;;;;;;;5053435;28;20099;-72
2021/11/14 08:39:33;;;;;;;0.50;0.23;;;;;;;;;;5053544;28;20028;-73
2021/11/14 08:42:00;;;;;;;1.48;0.20;;;;;;;;;;5053563;28;20337;-72
2021/11/14 08:44:31;;;;;;;1.02;0.20;;;;;;;;;;5052084;28;20028;-73
2021/11/14 08:47:07;;;;;;;1.80;0.13;;;;;;;;;;5053472;28;20028;-72
2021/11/14 08:49:33;;;;;;;3.33;0.32;;;;;;;;;;5053374;28;20078;-73
2021/11/14 08:51:59;;;;;;;1.15;0.20;;;;;;;;;;5053372;28;20017;-73
2021/11/14 08:54:26;;;;;;;1.48;0.45;;;;;;;;;;5053285;28;20100;-72
2021/11/14 08:56:52;;;;;;;3.05;0.45;;;;;;;;;;5054948;28;20013;-74
2021/11/14 08:59:19;;;;;;;3.38;0.70;;;;;;;;;;5054452;28;20104;-72
2021/11/14 09:02:02;;;;;;;2.33;0.30;;;;;;;;;;5056995;28;20033;-74
2021/11/14 09:04:28;;;;;;;3.10;0.35;;;;;;;;;;5036937;28;20064;-72
2021/11/14 09:06:55;;;;;;;1.45;0.20;;;;;;;;;;5036781;28;20436;-73
2021/11/14 09:09:22;;;;;;;1.98;0.30;;;;;;;;;;5036818;28;20029;-73
2021/11/14 09:11:57;;;;;;;2.25;0.30;;;;;;;;;;5036529;28;20466;-71
2021/11/14 09:14:48;;;;;;;0.75;0.20;;;;;;;;;;5036749;28;20388;-73
2021/11/14 09:17:15;;;;;;;1.33;0.30;;;;;;;;;;5036584;28;20025;-73
2021/11/14 09:19:41;;;;;;;2.38;0.45;;;;;;;;;;5035407;28;20028;-73
2021/11/14 09:22:08;;;;;;;4.90;0.88;;;;;;;;;;5036481;28;20079;-71
2021/11/14 09:24:43;;;;;;;2.33;0.20;;;;;;;;;;5036524;28;20021;-73
2021/11/14 09:27:08;;;;;;;2.60;0.20;;;;;;;;;;5035559;28;20028;-72
2021/11/14 09:29:46;;;;;;;2.35;0.40;;;;;;;;;;5036425;28;20026;-73
2021/11/14 09:32:25;;;;;;;2.05;0.35;;;;;;;;;;5036024;28;20448;-72
2021/11/14 09:35:21;;;;;;;1.50;0.10;;;;;;;;;;5036304;28;20018;-73
2021/11/14 09:37:46;;;;;;;1.65;0.20;;;;;;;;;;5014145;28;20030;-71
2021/11/14 09:40:20;;;;;;;1.35;0.10;;;;;;;;;;5014358;28;20072;-72
2021/11/14 09:42:47;;;;;;;2.75;0.30;;;;;;;;;;5014259;28;20061;-72
2021/11/14 09:45:13;;;;;;;0.75;0.10;;;;;;;;;;5014294;28;20030;-72
2021/11/14 09:47:39;;;;;;;1.60;0.10;;;;;;;;;;5014263;28;20550;-73
2021/11/14 09:50:05;;;;;;;3.08;0.30;;;;;;;;;;5014194;28;20022;-72
2021/11/14 09:52:49;;;;;;;0.10;0.10;;;;;;;;;;5014216;28;20030;-73
2021/11/14 09:55:37;;;;;;;1.17;0.20;;;;;;;;;;5015208;28;20030;-72
2021/11/14 09:58:04;;;;;;;0.40;0.10;;;;;;;;;;4997878;28;20041;-73
2021/11/14 10:00:30;;;;;;;1.08;0.22;;;;;;;;;;5014250;28;20049;-72
2021/11/14 10:02:55;;;;;;;1.35;0.40;;;;;;;;;;5021179;28;20493;-72
2021/11/14 10:05:29;;;;;;;0.82;0.10;;;;;;;;;;5033777;28;20029;-72
2021/11/14 10:08:03;;;;;;;1.95;0.28;;;;;;;;;;5033557;28;20075;-71
2021/11/14 10:10:31;;;;;;;1.00;0.10;;;;;;;;;;5032883;28;20024;-73
2021/11/14 10:13:21;;;;;;;1.85;0.85;;;;;;;;;;5016689;28;20235;-72
2021/11/14 10:16:11;;;;;;;2.13;0.75;;;;;;;;;;5055798;28;20025;-73
2021/11/14 10:18:37;;;;;;;0.63;0.10;;;;;;;;;;5055470;28;20096;-71
2021/11/14 10:21:07;;;;;;;2.50;0.50;;;;;;;;;;5055325;28;20055;-73
2021/11/14 10:23:35;;;;;;;1.20;0.10;;;;;;;;;;5053998;28;20049;-72
2021/11/14 10:26:14;;;;;;;2.05;0.30;;;;;;;;;;5055377;28;20013;-73
2021/11/14 10:28:48;;;;;;;0.73;0.20;;;;;;;;;;5056505;28;20045;-72
2021/11/14 10:31:19;;;;;;;;;;;;;;;;;;5055362;28;20409;-72
2021/11/14 10:33:47;;;;;;;3.10;0.20;;;;;;;;;;5053937;28;19966;-73
2021/11/14 10:36:14;;;;;;;0.63;0.10;;;;;;;;;;5054283;28;20045;-71
2021/11/14 10:38:40;;;;;;;1.95;0.77;;;;;;;;;;5055009;28;20461;-73
2021/11/14 10:41:12;;;;;;;1.63;0.20;;;;;;;;;;5054930;28;20094;-73
2021/11/14 10:43:48;;;;;;;2.00;0.22;;;;;;;;;;5055098;28;20472;-72
2021/11/14 10:46:16;;;;;;;0.85;0.20;;;;;;;;;;5054937;28;20021;-73
2021/11/14 10:48:43;;;;;;;1.75;0.25;;;;;;;;;;5054895;28;20082;-71
2021/11/14 10:51:17;;;;;;;2.38;0.10;;;;;;;;;;5054606;28;20017;-72
2021/11/14 10:53:45;;;;;;;1.30;0.20;;;;;;;;;;5054770;28;20027;-72
2021/11/14 10:56:12;;;;;;;0.95;0.10;;;;;;;;;;5054717;28;20059;-72
2021/11/14 10:58:46;;;;;;;1.55;0.20;;;;;;;;;;5054398;28;20021;-72
2021/11/14 11:01:14;;;;;;;0.75;0.25;;;;;;;;;;5054646;28;20045;-71
2021/11/14 11:03:45;;;;;;;1.90;0.45;;;;;;;;;;5054309;28;20131;-73
2021/11/14 11:06:22;;;;;;;1.38;0.10;;;;;;;;;;5054506;28;20029;-72
2021/11/14 11:09:08;;;;;;;0.90;0.20;;;;;;;;;;5054452;28;20020;-72
2021/11/14 11:11:34;;;;;;;0.73;0.30;;;;;;;;;;5054228;28;20067;-72
2021/11/14 11:14:01;;;;;;;0.82;0.17;;;;;;;;;;5054430;28;20368;-71
2021/11/14 11:16:29;;;;;;;2.90;0.60;;;;;;;;;;5054403;28;20460;-73
2021/11/14 11:19:20;;;;;;;0.90;0.10;;;;;;;;;;5054403;28;20020;-71
2021/11/14 11:21:48;;;;;;;0.93;0.10;;;;;;;;;;5052071;28;20033;-73
2021/11/14 11:24:15;;;;;;;2.75;0.30;;;;;;;;;;5053016;28;20070;-72
2021/11/14 11:29:40;;;;;;;0.47;0.10;;;;;;;;;;5054076;28;20025;-72
2021/11/14 11:32:08;;;;;;;1.30;0.20;;;;;;;;;;5054640;28;20055;-73
2021/11/14 11:35:06;;;;;;;0.90;0.10;;;;;;;;;;5054211;28;20032;-72
2021/11/14 11:37:40;;;;;;;0.80;0.05;;;;;;;;;;5012652;28;20032;-74
2021/11/14 11:40:06;;;;;;;1.25;0.25;;;;;;;;;;5012360;28;20057;-72
2021/11/14 11:42:31;;;;;;;1.42;0.10;;;;;;;;;;5012246;28;20125;-71
2021/11/14 11:44:57;;;;;;;1.48;0.30;;;;;;;;;;5012342;28;20113;-73
2021/11/14 11:47:30;;;;;;;1.58;0.15;;;;;;;;;;5012566;28;20057;-71
2021/11/14 11:49:55;;;;;;;1.02;0.10;;;;;;;;;;5012385;28;20026;-73
2021/11/14 11:52:22;;;;;;;1.77;0.40;;;;;;;;;;5012152;28;20071;-72
2021/11/14 11:54:50;;;;;;;1.10;0.28;;;;;;;;;;5011964;28;20038;-71
2021/11/14 11:57:26;;;;;;;1.02;0.20;;;;;;;;;;5014154;28;20101;-73
2021/11/14 12:00:00;;;;;;;3.58;1.20;;;;;;;;;;5012142;28;20030;-71
2021/11/14 12:02:31;;;;;;;1.65;0.60;;;;;;;;;;5008228;28;20043;-72
2021/11/14 12:04:57;;;;;;;1.60;0.20;;;;;;;;;;5012329;28;20042;-72
2021/11/14 12:07:55;;;;;;;3.25;0.43;;;;;;;;;;4995569;28;20041;-72
2021/11/14 12:10:25;;;;;;;3.13;0.40;;;;;;;;;;4992234;28;20125;-71
2021/11/14 12:13:06;;;;;;;2.13;0.40;;;;;;;;;;5000050;28;20034;-72
2021/11/14 12:16:03;;;;;;;2.63;0.30;;;;;;;;;;5011917;28;20382;-72
2021/11/14 12:18:43;;;;;;;1.30;0.65;;;;;;;;;;4953922;29;20027;-72
2021/11/14 12:21:21;;;;;;;0.75;0.10;;;;;;;;;;4955260;29;20031;-73
2021/11/14 12:23:52;;;;;;;0.95;0.20;;;;;;;;;;4953667;29;20031;-73
2021/11/14 12:26:30;;;;;;;0.90;0.20;;;;;;;;;;4937597;29;20036;-73
2021/11/14 12:29:00;;;;;;;0.70;0.10;;;;;;;;;;4953468;29;20028;-72
2021/11/14 12:34:21;;;;;;;1.33;0.30;;;;;;;;;;4954406;28;20062;-72
2021/11/14 12:36:48;;;;;;;4.38;0.70;;;;;;;;;;4957197;28;20026;-73
2021/11/14 12:39:16;;;;;;;0.32;0.08;;;;;;;;;;4957131;28;20494;-72
2021/11/14 12:42:18;;;;;;;1.00;0.20;;;;;;;;;;4957473;29;20067;-73
2021/11/14 12:44:53;;;;;;;0.73;0.28;;;;;;;;;;4957171;29;20117;-72
2021/11/14 12:47:19;;;;;;;0.85;0.13;;;;;;;;;;4937811;29;20506;-73
2021/11/14 12:50:03;;;;;;;3.47;0.40;;;;;;;;;;4940650;29;20032;-73
2021/11/14 12:52:31;;;;;;;4.63;0.35;;;;;;;;;;4921702;29;20036;-72
2021/11/14 12:55:06;;;;;;;0.82;0.17;;;;;;;;;;4953263;28;20033;-73
2021/11/14 12:57:50;;;;;;;1.30;0.15;;;;;;;;;;4995589;28;20034;-71
2021/11/14 13:00:27;;;;;;;0.85;0.13;;;;;;;;;;4995640;28;20034;-73
2021/11/14 13:02:53;;;;;;;2.80;0.40;;;;;;;;;;4995708;28;20607;-71
2021/11/14 13:05:19;;;;;;;1.42;0.20;;;;;;;;;;4979391;28;20038;-73
2021/11/14 13:07:51;;;;;;;2.28;0.20;;;;;;;;;;4995481;28;20022;-73
2021/11/14 13:10:17;;;;;;;1.48;0.40;;;;;;;;;;4995360;28;20113;-71
2021/11/14 13:12:45;;;;;;;1.63;0.38;;;;;;;;;;4978979;28;20038;-73
2021/11/14 13:15:10;;;;;;;1.88;0.30;;;;;;;;;;4995608;28;20014;-73
2021/11/14 13:17:38;;;;;;;1.42;0.20;;;;;;;;;;4996313;28;20101;-72
2021/11/14 13:20:05;;;;;;;1.95;0.22;;;;;;;;;;5017041;28;20018;-74
2021/11/14 13:22:36;;;;;;;1.33;0.13;;;;;;;;;;5015620;28;20511;-72
2021/11/14 13:25:13;;;;;;;0.82;0.30;;;;;;;;;;5016640;28;20125;-73
2021/11/14 13:27:48;;;;;;;0.30;0.10;;;;;;;;;;5016741;28;20465;-73
2021/11/14 13:30:14;;;;;;;1.30;0.20;;;;;;;;;;5016660;28;20064;-72
2021/11/14 13:32:56;;;;;;;2.70;0.20;;;;;;;;;;5016586;28;20022;-73
2021/11/14 13:35:22;;;;;;;1.33;0.15;;;;;;;;;;5016583;28;20018;-72
2021/11/14 13:38:06;;;;;;;1.23;0.10;;;;;;;;;;5016429;28;20462;-73
2021/11/14 13:40:31;;;;;;;1.25;0.10;;;;;;;;;;5016296;28;20018;-71
2021/11/14 13:43:18;;;;;;;2.47;0.38;;;;;;;;;;5015783;28;20104;-72
2021/11/14 13:45:48;;;;;;;0.57;0.10;;;;;;;;;;5016484;28;20049;-73
2021/11/14 13:48:15;;;;;;;1.75;0.10;;;;;;;;;;5016249;28;20018;-73
2021/11/14 13:50:52;;;;;;;0.35;0.10;;;;;;;;;;5016271;28;20018;-73
2021/11/14 13:53:23;;;;;;;0.52;0.20;;;;;;;;;;5016329;28;20021;-72
2021/11/14 13:56:04;;;;;;;1.35;0.35;;;;;;;;;;5016190;28;20018;-72
2021/11/14 13:58:55;;;;;;;1.30;0.30;;;;;;;;;;5014923;28;20057;-72
2021/11/14 14:01:30;;;;;;;0.88;0.17;;;;;;;;;;5015750;28;20069;-74
2021/11/14 14:03:56;;;;;;;1.52;0.30;;;;;;;;;;5037207;28;20127;-73
2021/11/14 14:06:29;;;;;;;1.98;0.30;;;;;;;;;;5055632;28;20112;-72
2021/11/14 14:08:58;;;;;;;2.28;0.20;;;;;;;;;;5054526;28;20506;-73
2021/11/14 14:11:25;;;;;;;1.25;0.10;;;;;;;;;;5055509;28;20113;-71
2021/11/14 14:13:57;;;;;;;2.67;0.17;;;;;;;;;;5055577;28;20029;-73
2021/11/14 14:16:49;;;;;;;1.15;0.10;;;;;;;;;;5055462;28;20349;-73
2021/11/14 14:19:29;;;;;;;2.20;0.68;;;;;;;;;;5014762;28;20456;-72
2021/11/14 14:21:59;;;;;;;1.40;0.45;;;;;;;;;;4997155;28;20024;-72
2021/11/14 14:24:54;;;;;;;1.75;0.22;;;;;;;;;;4996148;28;20064;-73
2021/11/14 14:27:23;;;;;;;1.90;0.68;;;;;;;;;;4993871;28;20074;-72
2021/11/14 14:30:06;;;;;;;1.30;0.40;;;;;;;;;;4993836;28;20035;-72
2021/11/14 14:32:34;;;;;;;0.63;0.10;;;;;;;;;;4993981;28;20034;-73
2021/11/14 14:35:06;;;;;;;1.27;0.20;;;;;;;;;;4993698;28;20382;-70
2021/11/14 14:37:42;;;;;;;1.17;0.10;;;;;;;;;;4993578;28;20081;-73
2021/11/14 14:40:28;;;;;;;2.58;0.38;;;;;;;;;;4993659;28;20421;-71
2021/11/14 14:42:54;;;;;;;0.88;0.20;;;;;;;;;;4993579;28;20034;-73
2021/11/14 14:45:23;;;;;;;2.13;0.10;;;;;;;;;;4977364;28;20489;-72
2021/11/14 14:47:58;;;;;;;2.67;0.47;;;;;;;;;;4993419;28;20466;-72
2021/11/14 14:50:36;;;;;;;2.92;0.32;;;;;;;;;;4993461;28;20031;-72
2021/11/14 14:53:10;;;;;;;3.05;0.40;;;;;;;;;;4993129;28;20018;-72
2021/11/14 14:55:47;;;;;;;0.73;0.20;;;;;;;;;;4999941;28;20116;-73
2021/11/14 14:58:13;;;;;;;0.65;0.32;;;;;;;;;;5012425;28;20065;-71
2021/11/14 15:00:49;;;;;;;1.20;0.20;;;;;;;;;;5013189;28;20026;-73
2021/11/14 15:03:15;;;;;;;1.75;0.20;;;;;;;;;;5025714;28;20045;-73
2021/11/14 15:05:42;;;;;;;1.55;0.20;;;;;;;;;;5053306;28;20460;-71
2021/11/14 15:08:26;;;;;;;2.05;0.25;;;;;;;;;;5054396;28;20024;-72
2021/11/14 15:11:03;;;;;;;0.47;0.10;;;;;;;;;;5054263;28;20025;-71
2021/11/14 15:13:38;;;;;;;0.47;0.10;;;;;;;;;;5053130;28;20472;-73
2021/11/14 15:16:24;;;;;;;3.58;0.40;;;;;;;;;;5054137;28;20052;-71
2021/11/14 15:18:56;;;;;;;0.73;0.10;;;;;;;;;;5053909;28;20031;-73
2021/11/14 15:21:21;;;;;;;2.10;0.30;;;;;;;;;;5054481;28;20029;-71